sensor_id;sensor_type;location;lat;lon;timestamp;P1;durP1;ratioP1;P2;durP2;ratioP2
69319;SDS011;56467;53.502;49.248;2022-11-10T00:00:41;7.40;;;4.50;;
69319;SDS011;56467;53.502;49.248;2022-11-10T00:03:07;6.65;;;4.03;;
69319;SDS011;56467;53.502;49.248;2022-11-10T00:05:35;6.75;;;4.20;;
69319;SDS011;56467;53.502;49.248;2022-11-10T00:08:03;6.75;;;3.95;;
69319;SDS011;56467;53.502;49.248;2022-11-10T00:10:30;7.07;;;4.25;;
69319;SDS011;56467;53.502;49.248;2022-11-10T00:13:00;6.18;;;4.10;;
69319;SDS011;56467;53.502;49.248;2022-11-10T00:15:27;6.32;;;4.28;;
69319;SDS011;56467;53.502;49.248;2022-11-10T00:18:11;7.30;;;4.10;;
69319;SDS011;56467;53.502;49.248;2022-11-10T00:20:37;6.85;;;4.15;;
69319;SDS011;56467;53.502;49.248;2022-11-10T00:23:03;6.78;;;4.00;;
69319;SDS011;56467;53.502;49.248;2022-11-10T00:25:30;8.15;;;3.90;;
69319;SDS011;56467;53.502;49.248;2022-11-10T00:27:59;5.95;;;3.90;;
69319;SDS011;56467;53.502;49.248;2022-11-10T00:30:25;6.38;;;4.10;;
69319;SDS011;56467;53.502;49.248;2022-11-10T00:32:51;6.18;;;4.30;;
69319;SDS011;56467;53.502;49.248;2022-11-10T00:35:16;5.35;;;3.40;;
69319;SDS011;56467;53.502;49.248;2022-11-10T00:37:43;6.95;;;3.88;;
69319;SDS011;56467;53.502;49.248;2022-11-10T00:40:08;5.65;;;4.00;;
69319;SDS011;56467;53.502;49.248;2022-11-10T00:42:34;5.70;;;3.60;;
69319;SDS011;56467;53.502;49.248;2022-11-10T00:45:00;5.05;;;3.38;;
69319;SDS011;56467;53.502;49.248;2022-11-10T00:47:26;5.47;;;3.53;;
69319;SDS011;56467;53.502;49.248;2022-11-10T00:49:52;5.97;;;3.60;;
69319;SDS011;56467;53.502;49.248;2022-11-10T00:52:17;4.35;;;3.30;;
69319;SDS011;56467;53.502;49.248;2022-11-10T00:54:43;5.03;;;3.28;;
69319;SDS011;56467;53.502;49.248;2022-11-10T00:57:09;5.50;;;3.65;;
69319;SDS011;56467;53.502;49.248;2022-11-10T00:59:35;5.32;;;3.50;;
69319;SDS011;56467;53.502;49.248;2022-11-10T01:02:01;6.18;;;3.45;;
69319;SDS011;56467;53.502;49.248;2022-11-10T01:04:26;5.22;;;3.33;;
69319;SDS011;56467;53.502;49.248;2022-11-10T01:06:52;5.03;;;3.60;;
69319;SDS011;56467;53.502;49.248;2022-11-10T01:09:18;5.05;;;3.10;;
69319;SDS011;56467;53.502;49.248;2022-11-10T01:11:44;4.10;;;3.15;;
69319;SDS011;56467;53.502;49.248;2022-11-10T01:14:09;4.55;;;3.30;;
69319;SDS011;56467;53.502;49.248;2022-11-10T01:16:35;5.75;;;3.17;;
69319;SDS011;56467;53.502;49.248;2022-11-10T01:19:01;4.97;;;3.30;;
69319;SDS011;56467;53.502;49.248;2022-11-10T01:21:28;5.43;;;3.25;;
69319;SDS011;56467;53.502;49.248;2022-11-10T01:23:57;4.38;;;3.22;;
69319;SDS011;56467;53.502;49.248;2022-11-10T01:26:23;4.15;;;3.05;;
69319;SDS011;56467;53.502;49.248;2022-11-10T01:28:49;4.63;;;3.13;;
69319;SDS011;56467;53.502;49.248;2022-11-10T01:31:20;5.22;;;3.20;;
69319;SDS011;56467;53.502;49.248;2022-11-10T01:33:46;4.20;;;3.10;;
69319;SDS011;56467;53.502;49.248;2022-11-10T01:36:12;5.28;;;3.28;;
69319;SDS011;56467;53.502;49.248;2022-11-10T01:38:39;4.15;;;3.13;;
69319;SDS011;56467;53.502;49.248;2022-11-10T01:41:08;4.47;;;2.97;;
69319;SDS011;56467;53.502;49.248;2022-11-10T01:43:35;4.45;;;3.05;;
69319;SDS011;56467;53.502;49.248;2022-11-10T01:51:27;3.50;;;2.60;;
69319;SDS011;56467;53.502;49.248;2022-11-10T01:54:00;5.30;;;2.88;;
69319;SDS011;56467;53.502;49.248;2022-11-10T01:56:35;4.40;;;2.78;;
69319;SDS011;56467;53.502;49.248;2022-11-10T01:59:05;4.00;;;2.72;;
69319;SDS011;56467;53.502;49.248;2022-11-10T02:01:37;3.75;;;2.63;;
69319;SDS011;56467;53.502;49.248;2022-11-10T02:04:05;3.58;;;2.90;;
69319;SDS011;56467;53.502;49.248;2022-11-10T02:06:35;3.40;;;2.55;;
69319;SDS011;56467;53.502;49.248;2022-11-10T02:09:05;4.70;;;2.85;;
69319;SDS011;56467;53.502;49.248;2022-11-10T02:11:31;3.60;;;2.67;;
69319;SDS011;56467;53.502;49.248;2022-11-10T02:13:58;3.85;;;2.90;;
69319;SDS011;56467;53.502;49.248;2022-11-10T02:16:24;3.90;;;2.75;;
69319;SDS011;56467;53.502;49.248;2022-11-10T02:18:51;3.70;;;2.78;;
69319;SDS011;56467;53.502;49.248;2022-11-10T02:21:17;3.97;;;2.67;;
69319;SDS011;56467;53.502;49.248;2022-11-10T02:23:46;4.30;;;2.50;;
69319;SDS011;56467;53.502;49.248;2022-11-10T02:26:15;4.03;;;2.75;;
69319;SDS011;56467;53.502;49.248;2022-11-10T02:28:45;3.40;;;2.70;;
69319;SDS011;56467;53.502;49.248;2022-11-10T02:31:10;3.72;;;2.58;;
69319;SDS011;56467;53.502;49.248;2022-11-10T02:33:36;3.75;;;2.70;;
69319;SDS011;56467;53.502;49.248;2022-11-10T02:36:03;3.72;;;2.72;;
69319;SDS011;56467;53.502;49.248;2022-11-10T02:38:29;4.50;;;2.60;;
69319;SDS011;56467;53.502;49.248;2022-11-10T02:40:54;3.90;;;2.80;;
69319;SDS011;56467;53.502;49.248;2022-11-10T02:43:20;3.63;;;2.50;;
69319;SDS011;56467;53.502;49.248;2022-11-10T02:45:46;3.53;;;2.80;;
69319;SDS011;56467;53.502;49.248;2022-11-10T02:48:12;3.40;;;2.50;;
69319;SDS011;56467;53.502;49.248;2022-11-10T02:50:39;3.40;;;2.60;;
69319;SDS011;56467;53.502;49.248;2022-11-10T02:53:05;4.43;;;2.70;;
69319;SDS011;56467;53.502;49.248;2022-11-10T02:55:31;3.78;;;2.63;;
69319;SDS011;56467;53.502;49.248;2022-11-10T02:57:57;3.72;;;2.50;;
69319;SDS011;56467;53.502;49.248;2022-11-10T03:00:23;3.20;;;2.40;;
69319;SDS011;56467;53.502;49.248;2022-11-10T03:02:56;4.20;;;2.72;;
69319;SDS011;56467;53.502;49.248;2022-11-10T03:05:23;4.18;;;2.58;;
69319;SDS011;56467;53.502;49.248;2022-11-10T03:07:55;3.60;;;2.53;;
69319;SDS011;56467;53.502;49.248;2022-11-10T03:10:26;3.10;;;2.40;;
69319;SDS011;56467;53.502;49.248;2022-11-10T03:12:57;3.47;;;2.50;;
69319;SDS011;56467;53.502;49.248;2022-11-10T03:15:25;3.83;;;2.65;;
69319;SDS011;56467;53.502;49.248;2022-11-10T03:17:51;3.35;;;2.53;;
69319;SDS011;56467;53.502;49.248;2022-11-10T03:20:17;3.50;;;2.50;;
69319;SDS011;56467;53.502;49.248;2022-11-10T03:22:43;4.35;;;2.65;;
69319;SDS011;56467;53.502;49.248;2022-11-10T03:25:09;3.00;;;2.60;;
69319;SDS011;56467;53.502;49.248;2022-11-10T03:27:35;3.58;;;2.50;;
69319;SDS011;56467;53.502;49.248;2022-11-10T03:30:01;5.60;;;2.80;;
69319;SDS011;56467;53.502;49.248;2022-11-10T03:32:28;3.10;;;2.40;;
69319;SDS011;56467;53.502;49.248;2022-11-10T03:34:53;3.95;;;2.70;;
69319;SDS011;56467;53.502;49.248;2022-11-10T03:37:19;3.63;;;2.50;;
69319;SDS011;56467;53.502;49.248;2022-11-10T03:39:45;3.17;;;2.33;;
69319;SDS011;56467;53.502;49.248;2022-11-10T03:42:11;3.05;;;2.47;;
69319;SDS011;56467;53.502;49.248;2022-11-10T03:44:37;3.60;;;2.40;;
69319;SDS011;56467;53.502;49.248;2022-11-10T03:47:03;3.10;;;2.10;;
69319;SDS011;56467;53.502;49.248;2022-11-10T03:49:29;3.95;;;2.63;;
69319;SDS011;56467;53.502;49.248;2022-11-10T03:51:55;3.70;;;2.30;;
69319;SDS011;56467;53.502;49.248;2022-11-10T03:54:21;3.13;;;2.47;;
69319;SDS011;56467;53.502;49.248;2022-11-10T03:56:46;3.17;;;2.40;;
69319;SDS011;56467;53.502;49.248;2022-11-10T03:59:12;3.78;;;2.38;;
69319;SDS011;56467;53.502;49.248;2022-11-10T04:01:38;2.85;;;2.25;;
69319;SDS011;56467;53.502;49.248;2022-11-10T04:04:04;3.53;;;2.63;;
69319;SDS011;56467;53.502;49.248;2022-11-10T04:06:49;3.53;;;2.25;;
69319;SDS011;56467;53.502;49.248;2022-11-10T04:09:33;3.17;;;2.53;;
69319;SDS011;56467;53.502;49.248;2022-11-10T04:11:59;2.70;;;2.30;;
69319;SDS011;56467;53.502;49.248;2022-11-10T04:14:43;3.30;;;2.20;;
69319;SDS011;56467;53.502;49.248;2022-11-10T04:17:27;3.28;;;2.50;;
69319;SDS011;56467;53.502;49.248;2022-11-10T04:19:55;2.53;;;2.13;;
69319;SDS011;56467;53.502;49.248;2022-11-10T04:22:21;3.75;;;2.55;;
69319;SDS011;56467;53.502;49.248;2022-11-10T04:25:06;3.28;;;2.50;;
69319;SDS011;56467;53.502;49.248;2022-11-10T04:27:32;3.65;;;2.40;;
69319;SDS011;56467;53.502;49.248;2022-11-10T04:29:58;3.60;;;2.42;;
69319;SDS011;56467;53.502;49.248;2022-11-10T04:32:24;2.63;;;2.28;;
69319;SDS011;56467;53.502;49.248;2022-11-10T04:34:49;3.00;;;2.22;;
69319;SDS011;56467;53.502;49.248;2022-11-10T04:37:15;3.97;;;2.33;;
69319;SDS011;56467;53.502;49.248;2022-11-10T04:39:41;3.13;;;2.50;;
69319;SDS011;56467;53.502;49.248;2022-11-10T04:42:07;2.97;;;2.42;;
69319;SDS011;56467;53.502;49.248;2022-11-10T04:44:33;3.78;;;2.47;;
69319;SDS011;56467;53.502;49.248;2022-11-10T04:46:58;4.05;;;2.20;;
69319;SDS011;56467;53.502;49.248;2022-11-10T04:49:24;3.28;;;2.20;;
69319;SDS011;56467;53.502;49.248;2022-11-10T04:51:50;3.03;;;2.30;;
69319;SDS011;56467;53.502;49.248;2022-11-10T04:54:16;2.97;;;2.30;;
69319;SDS011;56467;53.502;49.248;2022-11-10T04:56:41;3.47;;;2.30;;
69319;SDS011;56467;53.502;49.248;2022-11-10T04:59:07;3.33;;;2.38;;
69319;SDS011;56467;53.502;49.248;2022-11-10T05:01:33;2.95;;;2.42;;
69319;SDS011;56467;53.502;49.248;2022-11-10T05:03:58;3.67;;;2.58;;
69319;SDS011;56467;53.502;49.248;2022-11-10T05:06:25;3.67;;;2.35;;
69319;SDS011;56467;53.502;49.248;2022-11-10T05:08:50;2.88;;;2.10;;
69319;SDS011;56467;53.502;49.248;2022-11-10T05:11:16;3.88;;;2.40;;
69319;SDS011;56467;53.502;49.248;2022-11-10T05:13:43;2.40;;;2.17;;
69319;SDS011;56467;53.502;49.248;2022-11-10T05:16:09;3.17;;;2.30;;
69319;SDS011;56467;53.502;49.248;2022-11-10T05:18:35;3.20;;;2.30;;
69319;SDS011;56467;53.502;49.248;2022-11-10T05:21:01;2.85;;;2.53;;
69319;SDS011;56467;53.502;49.248;2022-11-10T05:23:27;4.15;;;2.30;;
69319;SDS011;56467;53.502;49.248;2022-11-10T05:28:42;3.55;;;2.45;;
69319;SDS011;56467;53.502;49.248;2022-11-10T05:31:09;2.90;;;2.20;;
69319;SDS011;56467;53.502;49.248;2022-11-10T05:33:36;2.88;;;2.38;;
69319;SDS011;56467;53.502;49.248;2022-11-10T05:36:03;3.67;;;2.30;;
69319;SDS011;56467;53.502;49.248;2022-11-10T05:38:30;3.20;;;2.30;;
69319;SDS011;56467;53.502;49.248;2022-11-10T05:40:56;2.63;;;2.20;;
69319;SDS011;56467;53.502;49.248;2022-11-10T05:43:22;2.95;;;2.33;;
69319;SDS011;56467;53.502;49.248;2022-11-10T05:45:48;3.38;;;2.25;;
69319;SDS011;56467;53.502;49.248;2022-11-10T05:48:14;3.28;;;2.20;;
69319;SDS011;56467;53.502;49.248;2022-11-10T05:50:41;3.22;;;2.45;;
69319;SDS011;56467;53.502;49.248;2022-11-10T05:53:07;2.30;;;2.03;;
69319;SDS011;56467;53.502;49.248;2022-11-10T05:55:33;2.85;;;2.33;;
69319;SDS011;56467;53.502;49.248;2022-11-10T05:57:58;4.28;;;2.42;;
69319;SDS011;56467;53.502;49.248;2022-11-10T06:00:25;4.60;;;2.50;;
69319;SDS011;56467;53.502;49.248;2022-11-10T06:03:35;2.97;;;2.30;;
69319;SDS011;56467;53.502;49.248;2022-11-10T06:05:42;3.58;;;2.65;;
69319;SDS011;56467;53.502;49.248;2022-11-10T06:08:08;3.65;;;2.63;;
69319;SDS011;56467;53.502;49.248;2022-11-10T06:10:35;2.40;;;2.13;;
69319;SDS011;56467;53.502;49.248;2022-11-10T06:13:01;2.97;;;2.17;;
69319;SDS011;56467;53.502;49.248;2022-11-10T06:15:27;3.10;;;2.35;;
69319;SDS011;56467;53.502;49.248;2022-11-10T06:17:53;3.38;;;2.40;;
69319;SDS011;56467;53.502;49.248;2022-11-10T06:20:20;2.80;;;2.30;;
69319;SDS011;56467;53.502;49.248;2022-11-10T06:23:05;2.67;;;2.10;;
69319;SDS011;56467;53.502;49.248;2022-11-10T06:25:34;3.47;;;2.47;;
69319;SDS011;56467;53.502;49.248;2022-11-10T06:28:01;2.40;;;2.10;;
69319;SDS011;56467;53.502;49.248;2022-11-10T06:30:27;4.00;;;2.40;;
69319;SDS011;56467;53.502;49.248;2022-11-10T06:32:54;2.80;;;2.30;;
69319;SDS011;56467;53.502;49.248;2022-11-10T06:35:20;3.80;;;2.60;;
69319;SDS011;56467;53.502;49.248;2022-11-10T06:40:41;3.05;;;2.30;;
69319;SDS011;56467;53.502;49.248;2022-11-10T06:43:07;2.80;;;2.40;;
69319;SDS011;56467;53.502;49.248;2022-11-10T06:45:33;2.95;;;2.25;;
69319;SDS011;56467;53.502;49.248;2022-11-10T06:47:59;2.85;;;2.10;;
69319;SDS011;56467;53.502;49.248;2022-11-10T06:50:28;3.70;;;2.50;;
69319;SDS011;56467;53.502;49.248;2022-11-10T06:52:55;3.17;;;2.08;;
69319;SDS011;56467;53.502;49.248;2022-11-10T06:55:21;3.47;;;2.10;;
69319;SDS011;56467;53.502;49.248;2022-11-10T06:57:47;2.33;;;2.05;;
69319;SDS011;56467;53.502;49.248;2022-11-10T07:00:14;2.78;;;2.47;;
69319;SDS011;56467;53.502;49.248;2022-11-10T07:02:40;2.97;;;2.35;;
69319;SDS011;56467;53.502;49.248;2022-11-10T07:05:06;3.10;;;2.20;;
69319;SDS011;56467;53.502;49.248;2022-11-10T07:07:32;2.80;;;2.10;;
69319;SDS011;56467;53.502;49.248;2022-11-10T07:09:58;2.92;;;2.20;;
69319;SDS011;56467;53.502;49.248;2022-11-10T07:12:24;3.15;;;2.30;;
69319;SDS011;56467;53.502;49.248;2022-11-10T07:14:50;2.75;;;2.28;;
69319;SDS011;56467;53.502;49.248;2022-11-10T07:17:16;2.78;;;2.40;;
69319;SDS011;56467;53.502;49.248;2022-11-10T07:19:41;3.30;;;2.50;;
69319;SDS011;56467;53.502;49.248;2022-11-10T07:22:07;3.35;;;2.30;;
69319;SDS011;56467;53.502;49.248;2022-11-10T07:24:33;2.60;;;2.20;;
69319;SDS011;56467;53.502;49.248;2022-11-10T07:26:59;3.13;;;2.42;;
69319;SDS011;56467;53.502;49.248;2022-11-10T07:29:25;3.28;;;2.40;;
69319;SDS011;56467;53.502;49.248;2022-11-10T07:31:51;3.67;;;2.45;;
69319;SDS011;56467;53.502;49.248;2022-11-10T07:34:17;5.57;;;2.53;;
69319;SDS011;56467;53.502;49.248;2022-11-10T07:36:43;2.67;;;2.40;;
69319;SDS011;56467;53.502;49.248;2022-11-10T07:39:09;2.75;;;2.30;;
69319;SDS011;56467;53.502;49.248;2022-11-10T07:41:36;2.53;;;2.10;;
69319;SDS011;56467;53.502;49.248;2022-11-10T07:44:01;3.45;;;2.40;;
69319;SDS011;56467;53.502;49.248;2022-11-10T07:46:27;3.20;;;2.28;;
69319;SDS011;56467;53.502;49.248;2022-11-10T07:48:53;3.42;;;2.40;;
69319;SDS011;56467;53.502;49.248;2022-11-10T07:51:19;3.33;;;2.25;;
69319;SDS011;56467;53.502;49.248;2022-11-10T07:53:44;2.90;;;2.30;;
69319;SDS011;56467;53.502;49.248;2022-11-10T07:56:10;2.97;;;2.33;;
69319;SDS011;56467;53.502;49.248;2022-11-10T07:58:36;4.13;;;2.60;;
69319;SDS011;56467;53.502;49.248;2022-11-10T08:01:02;2.88;;;2.20;;
69319;SDS011;56467;53.502;49.248;2022-11-10T08:03:28;3.17;;;2.50;;
69319;SDS011;56467;53.502;49.248;2022-11-10T08:05:54;2.53;;;2.30;;
69319;SDS011;56467;53.502;49.248;2022-11-10T08:08:20;3.58;;;2.60;;
69319;SDS011;56467;53.502;49.248;2022-11-10T08:10:45;3.60;;;2.70;;
69319;SDS011;56467;53.502;49.248;2022-11-10T08:13:11;2.67;;;2.30;;
69319;SDS011;56467;53.502;49.248;2022-11-10T08:15:38;3.38;;;2.40;;
69319;SDS011;56467;53.502;49.248;2022-11-10T08:18:05;3.30;;;2.53;;
69319;SDS011;56467;53.502;49.248;2022-11-10T08:20:39;2.95;;;2.40;;
69319;SDS011;56467;53.502;49.248;2022-11-10T08:23:06;4.38;;;2.60;;
69319;SDS011;56467;53.502;49.248;2022-11-10T08:25:34;4.20;;;2.40;;
69319;SDS011;56467;53.502;49.248;2022-11-10T08:28:01;3.45;;;2.65;;
69319;SDS011;56467;53.502;49.248;2022-11-10T08:30:33;3.63;;;2.60;;
69319;SDS011;56467;53.502;49.248;2022-11-10T08:33:01;3.58;;;2.60;;
69319;SDS011;56467;53.502;49.248;2022-11-10T08:35:29;4.53;;;2.55;;
69319;SDS011;56467;53.502;49.248;2022-11-10T08:37:55;4.22;;;2.75;;
69319;SDS011;56467;53.502;49.248;2022-11-10T08:40:22;4.43;;;2.72;;
69319;SDS011;56467;53.502;49.248;2022-11-10T08:42:57;4.18;;;2.53;;
69319;SDS011;56467;53.502;49.248;2022-11-10T08:45:27;3.00;;;2.33;;
69319;SDS011;56467;53.502;49.248;2022-11-10T08:47:56;3.45;;;2.70;;
69319;SDS011;56467;53.502;49.248;2022-11-10T08:50:42;3.92;;;2.90;;
69319;SDS011;56467;53.502;49.248;2022-11-10T08:53:10;4.22;;;2.60;;
69319;SDS011;56467;53.502;49.248;2022-11-10T08:55:47;3.60;;;2.70;;
69319;SDS011;56467;53.502;49.248;2022-11-10T08:58:14;3.60;;;2.80;;
69319;SDS011;56467;53.502;49.248;2022-11-10T09:00:41;3.53;;;2.83;;
69319;SDS011;56467;53.502;49.248;2022-11-10T09:03:09;4.20;;;2.67;;
69319;SDS011;56467;53.502;49.248;2022-11-10T09:05:38;3.78;;;2.40;;
69319;SDS011;56467;53.502;49.248;2022-11-10T09:08:04;3.65;;;2.65;;
69319;SDS011;56467;53.502;49.248;2022-11-10T09:10:30;4.22;;;2.83;;
69319;SDS011;56467;53.502;49.248;2022-11-10T09:12:57;3.05;;;2.55;;
69319;SDS011;56467;53.502;49.248;2022-11-10T09:15:24;4.72;;;3.00;;
69319;SDS011;56467;53.502;49.248;2022-11-10T09:17:50;5.38;;;3.08;;
69319;SDS011;56467;53.502;49.248;2022-11-10T09:20:16;3.65;;;2.78;;
69319;SDS011;56467;53.502;49.248;2022-11-10T09:22:41;4.82;;;3.05;;
69319;SDS011;56467;53.502;49.248;2022-11-10T09:25:07;3.47;;;2.75;;
69319;SDS011;56467;53.502;49.248;2022-11-10T09:27:34;4.45;;;3.08;;
69319;SDS011;56467;53.502;49.248;2022-11-10T09:30:02;4.28;;;3.00;;
69319;SDS011;56467;53.502;49.248;2022-11-10T09:32:29;3.47;;;3.15;;
69319;SDS011;56467;53.502;49.248;2022-11-10T09:34:56;4.00;;;3.03;;
69319;SDS011;56467;53.502;49.248;2022-11-10T09:37:22;4.10;;;2.65;;
69319;SDS011;56467;53.502;49.248;2022-11-10T09:39:48;4.25;;;3.00;;
69319;SDS011;56467;53.502;49.248;2022-11-10T09:42:26;4.82;;;3.03;;
69319;SDS011;56467;53.502;49.248;2022-11-10T09:50:34;3.88;;;2.95;;
69319;SDS011;56467;53.502;49.248;2022-11-10T09:53:14;3.33;;;2.72;;
69319;SDS011;56467;53.502;49.248;2022-11-10T09:55:49;3.67;;;2.90;;
69319;SDS011;56467;53.502;49.248;2022-11-10T09:58:20;4.07;;;2.78;;
69319;SDS011;56467;53.502;49.248;2022-11-10T10:01:26;3.53;;;2.92;;
69319;SDS011;56467;53.502;49.248;2022-11-10T10:03:55;3.53;;;2.90;;
69319;SDS011;56467;53.502;49.248;2022-11-10T10:06:33;4.40;;;3.13;;
69319;SDS011;56467;53.502;49.248;2022-11-10T10:12:24;3.65;;;2.90;;
69319;SDS011;56467;53.502;49.248;2022-11-10T10:25:22;3.97;;;3.10;;
69319;SDS011;56467;53.502;49.248;2022-11-10T10:27:51;3.42;;;2.85;;
69319;SDS011;56467;53.502;49.248;2022-11-10T10:30:47;4.32;;;2.85;;
69319;SDS011;56467;53.502;49.248;2022-11-10T10:33:16;4.88;;;3.25;;
69319;SDS011;56467;53.502;49.248;2022-11-10T10:35:45;5.97;;;2.90;;
69319;SDS011;56467;53.502;49.248;2022-11-10T10:38:18;3.67;;;3.13;;
69319;SDS011;56467;53.502;49.248;2022-11-10T10:40:49;3.80;;;3.10;;
69319;SDS011;56467;53.502;49.248;2022-11-10T10:43:16;4.20;;;3.10;;
69319;SDS011;56467;53.502;49.248;2022-11-10T10:45:42;4.72;;;3.20;;
69319;SDS011;56467;53.502;49.248;2022-11-10T10:48:24;5.35;;;3.13;;
69319;SDS011;56467;53.502;49.248;2022-11-10T10:50:50;4.32;;;3.10;;
69319;SDS011;56467;53.502;49.248;2022-11-10T10:53:17;4.15;;;3.30;;
69319;SDS011;56467;53.502;49.248;2022-11-10T10:58:29;3.75;;;3.00;;
69319;SDS011;56467;53.502;49.248;2022-11-10T11:01:04;4.80;;;3.20;;
69319;SDS011;56467;53.502;49.248;2022-11-10T11:08:56;4.07;;;2.95;;
69319;SDS011;56467;53.502;49.248;2022-11-10T11:11:26;4.03;;;3.22;;
69319;SDS011;56467;53.502;49.248;2022-11-10T11:16:44;4.75;;;3.25;;
69319;SDS011;56467;53.502;49.248;2022-11-10T11:19:11;3.15;;;2.75;;
69319;SDS011;56467;53.502;49.248;2022-11-10T11:21:41;4.28;;;3.10;;
69319;SDS011;56467;53.502;49.248;2022-11-10T11:26:59;5.35;;;3.30;;
69319;SDS011;56467;53.502;49.248;2022-11-10T11:29:54;5.00;;;3.28;;
69319;SDS011;56467;53.502;49.248;2022-11-10T11:32:53;4.78;;;3.30;;
69319;SDS011;56467;53.502;49.248;2022-11-10T11:35:51;7.15;;;3.38;;
69319;SDS011;56467;53.502;49.248;2022-11-10T11:41:35;13.55;;;7.43;;
69319;SDS011;56467;53.502;49.248;2022-11-10T11:44:17;13.57;;;7.85;;
69319;SDS011;56467;53.502;49.248;2022-11-10T11:49:46;13.02;;;7.57;;
69319;SDS011;56467;53.502;49.248;2022-11-10T12:01:05;11.68;;;6.93;;
69319;SDS011;56467;53.502;49.248;2022-11-10T12:04:39;11.32;;;6.97;;
69319;SDS011;56467;53.502;49.248;2022-11-10T12:13:24;11.70;;;6.80;;
69319;SDS011;56467;53.502;49.248;2022-11-10T12:18:51;10.95;;;6.60;;
69319;SDS011;56467;53.502;49.248;2022-11-10T12:21:44;10.95;;;6.22;;
69319;SDS011;56467;53.502;49.248;2022-11-10T12:27:34;9.48;;;5.85;;
69319;SDS011;56467;53.502;49.248;2022-11-10T12:29:58;9.98;;;6.30;;
69319;SDS011;56467;53.502;49.248;2022-11-10T12:32:30;10.70;;;6.07;;
69319;SDS011;56467;53.502;49.248;2022-11-10T12:37:36;10.05;;;6.00;;
69319;SDS011;56467;53.502;49.248;2022-11-10T12:40:15;9.80;;;5.63;;
69319;SDS011;56467;53.502;49.248;2022-11-10T12:42:44;11.02;;;5.70;;
69319;SDS011;56467;53.502;49.248;2022-11-10T12:45:30;9.70;;;5.95;;
69319;SDS011;56467;53.502;49.248;2022-11-10T12:48:17;10.15;;;5.70;;
69319;SDS011;56467;53.502;49.248;2022-11-10T12:53:22;9.55;;;5.65;;
69319;SDS011;56467;53.502;49.248;2022-11-10T12:58:17;8.80;;;5.60;;
69319;SDS011;56467;53.502;49.248;2022-11-10T13:00:45;8.45;;;5.50;;
69319;SDS011;56467;53.502;49.248;2022-11-10T13:03:32;8.52;;;5.30;;
69319;SDS011;56467;53.502;49.248;2022-11-10T13:06:01;8.18;;;5.32;;
69319;SDS011;56467;53.502;49.248;2022-11-10T13:08:33;8.25;;;5.35;;
69319;SDS011;56467;53.502;49.248;2022-11-10T13:14:17;7.45;;;5.22;;
69319;SDS011;56467;53.502;49.248;2022-11-10T13:19:51;8.02;;;5.03;;
69319;SDS011;56467;53.502;49.248;2022-11-10T13:24:31;9.23;;;5.60;;
69319;SDS011;56467;53.502;49.248;2022-11-10T13:27:12;7.78;;;5.03;;
69319;SDS011;56467;53.502;49.248;2022-11-10T13:29:58;8.68;;;5.70;;
69319;SDS011;56467;53.502;49.248;2022-11-10T13:32:31;8.68;;;5.05;;
69319;SDS011;56467;53.502;49.248;2022-11-10T13:37:57;8.38;;;5.22;;
69319;SDS011;56467;53.502;49.248;2022-11-10T13:48:43;7.85;;;5.35;;
69319;SDS011;56467;53.502;49.248;2022-11-10T13:59:52;13.23;;;7.40;;
69319;SDS011;56467;53.502;49.248;2022-11-10T14:05:02;17.95;;;9.45;;
69319;SDS011;56467;53.502;49.248;2022-11-10T14:07:32;16.83;;;9.77;;
69319;SDS011;56467;53.502;49.248;2022-11-10T14:10:09;17.77;;;10.00;;
69319;SDS011;56467;53.502;49.248;2022-11-10T14:12:44;18.33;;;9.90;;
69319;SDS011;56467;53.502;49.248;2022-11-10T14:15:21;17.80;;;9.65;;
69319;SDS011;56467;53.502;49.248;2022-11-10T14:17:54;17.50;;;10.18;;
69319;SDS011;56467;53.502;49.248;2022-11-10T14:20:22;16.92;;;9.70;;
69319;SDS011;56467;53.502;49.248;2022-11-10T14:22:51;15.80;;;8.88;;
69319;SDS011;56467;53.502;49.248;2022-11-10T14:28:00;16.90;;;9.15;;
69319;SDS011;56467;53.502;49.248;2022-11-10T14:30:27;15.15;;;8.85;;
69319;SDS011;56467;53.502;49.248;2022-11-10T14:33:07;14.63;;;8.45;;
69319;SDS011;56467;53.502;49.248;2022-11-10T14:35:42;13.88;;;8.65;;
69319;SDS011;56467;53.502;49.248;2022-11-10T14:38:22;13.90;;;8.48;;
69319;SDS011;56467;53.502;49.248;2022-11-10T14:40:54;14.05;;;8.00;;
69319;SDS011;56467;53.502;49.248;2022-11-10T14:43:29;16.77;;;8.70;;
69319;SDS011;56467;53.502;49.248;2022-11-10T14:46:00;13.57;;;8.18;;
69319;SDS011;56467;53.502;49.248;2022-11-10T14:48:28;12.98;;;7.82;;
69319;SDS011;56467;53.502;49.248;2022-11-10T14:53:38;12.38;;;7.57;;
69319;SDS011;56467;53.502;49.248;2022-11-10T14:56:13;11.50;;;7.30;;
69319;SDS011;56467;53.502;49.248;2022-11-10T14:58:45;12.80;;;7.85;;
69319;SDS011;56467;53.502;49.248;2022-11-10T15:01:26;12.30;;;7.68;;
69319;SDS011;56467;53.502;49.248;2022-11-10T15:03:59;12.38;;;7.60;;
69319;SDS011;56467;53.502;49.248;2022-11-10T15:06:27;12.40;;;7.38;;
69319;SDS011;56467;53.502;49.248;2022-11-10T15:08:53;13.05;;;7.90;;
69319;SDS011;56467;53.502;49.248;2022-11-10T15:11:33;10.40;;;6.55;;
69319;SDS011;56467;53.502;49.248;2022-11-10T15:13:59;13.38;;;7.78;;
69319;SDS011;56467;53.502;49.248;2022-11-10T15:16:28;18.73;;;10.40;;
69319;SDS011;56467;53.502;49.248;2022-11-10T15:19:17;26.20;;;13.30;;
69319;SDS011;56467;53.502;49.248;2022-11-10T15:22:12;23.52;;;12.57;;
69319;SDS011;56467;53.502;49.248;2022-11-10T15:24:45;25.55;;;13.50;;
69319;SDS011;56467;53.502;49.248;2022-11-10T15:27:21;27.27;;;13.57;;
69319;SDS011;56467;53.502;49.248;2022-11-10T15:29:49;26.15;;;13.30;;
69319;SDS011;56467;53.502;49.248;2022-11-10T15:32:16;26.27;;;13.15;;
69319;SDS011;56467;53.502;49.248;2022-11-10T15:34:45;25.83;;;13.30;;
69319;SDS011;56467;53.502;49.248;2022-11-10T15:37:27;24.23;;;12.30;;
69319;SDS011;56467;53.502;49.248;2022-11-10T15:45:37;23.90;;;12.00;;
69319;SDS011;56467;53.502;49.248;2022-11-10T15:48:04;19.75;;;11.45;;
69319;SDS011;56467;53.502;49.248;2022-11-10T15:50:39;19.65;;;11.10;;
69319;SDS011;56467;53.502;49.248;2022-11-10T15:53:16;19.02;;;10.82;;
69319;SDS011;56467;53.502;49.248;2022-11-10T15:55:45;18.95;;;10.77;;
69319;SDS011;56467;53.502;49.248;2022-11-10T15:58:14;21.15;;;10.80;;
69319;SDS011;56467;53.502;49.248;2022-11-10T16:00:42;20.38;;;10.60;;
69319;SDS011;56467;53.502;49.248;2022-11-10T16:03:12;18.38;;;10.02;;
69319;SDS011;56467;53.502;49.248;2022-11-10T16:05:39;17.95;;;9.75;;
69319;SDS011;56467;53.502;49.248;2022-11-10T16:08:10;18.60;;;9.95;;
69319;SDS011;56467;53.502;49.248;2022-11-10T16:10:38;18.27;;;9.85;;
69319;SDS011;56467;53.502;49.248;2022-11-10T16:13:11;16.25;;;9.30;;
69319;SDS011;56467;53.502;49.248;2022-11-10T16:15:40;15.88;;;9.25;;
69319;SDS011;56467;53.502;49.248;2022-11-10T16:18:14;13.95;;;8.75;;
69319;SDS011;56467;53.502;49.248;2022-11-10T16:20:43;15.82;;;8.93;;
69319;SDS011;56467;53.502;49.248;2022-11-10T16:23:09;15.95;;;9.38;;
69319;SDS011;56467;53.502;49.248;2022-11-10T16:25:36;16.52;;;9.23;;
69319;SDS011;56467;53.502;49.248;2022-11-10T16:28:03;15.20;;;8.88;;
69319;SDS011;56467;53.502;49.248;2022-11-10T16:30:30;14.20;;;8.43;;
69319;SDS011;56467;53.502;49.248;2022-11-10T16:32:57;15.45;;;9.10;;
69319;SDS011;56467;53.502;49.248;2022-11-10T16:35:25;15.40;;;8.88;;
69319;SDS011;56467;53.502;49.248;2022-11-10T16:37:51;14.85;;;8.65;;
69319;SDS011;56467;53.502;49.248;2022-11-10T16:40:18;14.35;;;8.63;;
69319;SDS011;56467;53.502;49.248;2022-11-10T16:42:46;14.50;;;8.70;;
69319;SDS011;56467;53.502;49.248;2022-11-10T16:47:46;12.73;;;8.32;;